createdAt,value
2022-12-07T00:01:40.919Z,100721.84
2022-12-07T00:04:42.382Z,100714.88
2022-12-07T00:07:43.817Z,100704.47
2022-12-07T00:10:45.252Z,100708.94
2022-12-07T00:13:48.548Z,100703.69
2022-12-07T00:16:52.447Z,100713.31
2022-12-07T00:19:53.914Z,100711.59
2022-12-07T00:22:55.307Z,100702.94
2022-12-07T00:25:57.170Z,100707.28
2022-12-07T00:29:01.688Z,100702.03
2022-12-07T00:32:03.767Z,100698.50
2022-12-07T00:35:05.753Z,100690.75
2022-12-07T00:38:07.233Z,100689.94
2022-12-07T00:41:12.862Z,100684.72
2022-12-07T00:44:14.352Z,100676.84
2022-12-07T00:47:15.753Z,100676.84
2022-12-07T00:50:17.658Z,100673.41
2022-12-07T00:53:19.924Z,100682.06
2022-12-07T00:56:27.750Z,100671.63
2022-12-07T00:59:29.185Z,100675.06
2022-12-07T01:02:30.580Z,100673.31
2022-12-07T01:05:31.998Z,100683.75
2022-12-07T01:08:34.484Z,100683.78
2022-12-07T01:11:35.943Z,100673.38
2022-12-07T01:14:37.342Z,100672.44
2022-12-07T01:17:38.768Z,100682.06
2022-12-07T01:20:40.411Z,100698.63
2022-12-07T01:23:42.159Z,100688.16
2022-12-07T01:26:43.573Z,100695.94
2022-12-07T01:29:45.177Z,100695.09
2022-12-07T01:32:46.683Z,100695.09
2022-12-07T01:35:48.088Z,100691.56
2022-12-07T01:38:54.565Z,100691.53
2022-12-07T01:41:56.140Z,100693.25
2022-12-07T01:45:19.256Z,100695.91
2022-12-07T01:48:28.602Z,100696.78
2022-12-07T01:51:30.662Z,100688.94
2022-12-07T01:54:33.381Z,100686.28
2022-12-07T01:57:37.685Z,100682.78
2022-12-07T02:00:39.972Z,100678.44
2022-12-07T02:03:45.427Z,100674.97
2022-12-07T02:06:47.891Z,100668.91
2022-12-07T02:09:49.453Z,100662.81
2022-12-07T02:12:58.307Z,100656.75
2022-12-07T02:16:20.478Z,100661.13
2022-12-07T02:19:36.562Z,100674.16
2022-12-07T02:23:03.430Z,100676.84
2022-12-07T02:26:39.663Z,100676.88
2022-12-07T02:29:41.109Z,100668.16
2022-12-07T02:32:50.877Z,100664.66
2022-12-07T02:35:59.183Z,100666.34
2022-12-07T02:39:06.306Z,100662.00
2022-12-07T02:42:16.218Z,100661.09
2022-12-07T02:45:21.017Z,100659.34
2022-12-07T02:48:24.068Z,100657.59
2022-12-07T02:51:25.547Z,100655.00
2022-12-07T02:54:27.008Z,100654.09
2022-12-07T02:57:52.133Z,100648.00
2022-12-07T03:01:05.718Z,100640.22
2022-12-07T03:04:37.254Z,100625.53
2022-12-07T03:07:56.728Z,100629.88
2022-12-07T03:10:59.913Z,100647.34
2022-12-07T03:14:16.234Z,100659.56
2022-12-07T03:17:24.674Z,100659.59
2022-12-07T03:20:28.577Z,100662.19
2022-12-07T03:23:35.517Z,100654.34
2022-12-07T03:26:41.732Z,100657.75
2022-12-07T03:30:00.911Z,100652.53
2022-12-07T03:33:11.172Z,100657.72
2022-12-07T03:36:37.393Z,100650.72
2022-12-07T03:40:03.064Z,100644.63
2022-12-07T03:43:05.829Z,100640.31
2022-12-07T03:46:55.681Z,100642.09
2022-12-07T03:50:08.326Z,100626.38
2022-12-07T03:53:16.713Z,100633.38
2022-12-07T03:56:19.287Z,100637.75
2022-12-07T03:59:21.546Z,100626.50
2022-12-07T04:02:24.381Z,100626.47
2022-12-07T04:05:26.603Z,100621.25
2022-12-07T04:08:28.057Z,100629.91
2022-12-07T04:11:29.586Z,100626.41
2022-12-07T04:14:31.009Z,100629.91
2022-12-07T04:17:32.454Z,100630.78
2022-12-07T04:20:34.011Z,100636.00
2022-12-07T04:23:35.588Z,100624.69
2022-12-07T04:26:37.023Z,100622.06
2022-12-07T04:29:38.512Z,100611.66
2022-12-07T04:32:39.980Z,100617.75
2022-12-07T04:35:43.468Z,100621.19
2022-12-07T04:38:44.880Z,100621.13
2022-12-07T04:41:46.422Z,100620.31
2022-12-07T04:44:47.807Z,100618.59
2022-12-07T04:47:49.205Z,100613.38
2022-12-07T04:50:50.751Z,100609.00
2022-12-07T04:53:52.578Z,100603.78
2022-12-07T04:56:54.032Z,100609.88
2022-12-07T04:59:55.442Z,100611.63
2022-12-07T05:02:56.823Z,100607.31
2022-12-07T05:05:58.230Z,100615.97
2022-12-07T05:08:59.957Z,100610.69
2022-12-07T05:12:01.339Z,100615.91
2022-12-07T05:15:02.915Z,100611.59
2022-12-07T05:18:04.456Z,100615.06
2022-12-07T05:21:05.845Z,100618.53
2022-12-07T05:24:08.470Z,100620.34
2022-12-07T05:27:09.862Z,100616.00
2022-12-07T05:30:11.781Z,100621.19
2022-12-07T05:33:13.182Z,100622.03
2022-12-07T05:36:14.680Z,100616.81
2022-12-07T05:39:16.389Z,100621.13
2022-12-07T05:42:18.171Z,100615.91
2022-12-07T05:45:19.664Z,100605.44
2022-12-07T05:48:21.065Z,100608.91
2022-12-07T05:51:22.710Z,100611.59
2022-12-07T05:54:24.158Z,100605.47
2022-12-07T05:57:25.620Z,100608.91
2022-12-07T06:00:27.235Z,100601.13
2022-12-07T06:03:28.659Z,100608.13
2022-12-07T06:06:30.227Z,100613.34
2022-12-07T06:09:32.506Z,100606.38
2022-12-07T06:12:36.646Z,100610.72
2022-12-07T06:15:38.160Z,100613.31
2022-12-07T06:18:39.546Z,100598.50
2022-12-07T06:21:41.296Z,100608.91
2022-12-07T06:24:43.189Z,100612.41
2022-12-07T06:27:44.649Z,100619.34
2022-12-07T06:30:46.036Z,100619.41
2022-12-07T06:33:47.445Z,100615.88
2022-12-07T06:36:52.363Z,100621.06
2022-12-07T06:39:53.773Z,100621.03
2022-12-07T06:42:56.020Z,100621.94
2022-12-07T06:45:57.570Z,100619.28
2022-12-07T06:48:59.112Z,100616.69
2022-12-07T06:52:00.684Z,100625.38
2022-12-07T06:55:02.249Z,100623.63
2022-12-07T06:58:04.053Z,100608.81
2022-12-07T07:01:18.049Z,100619.25
2022-12-07T07:04:19.596Z,100621.88
2022-12-07T07:07:20.980Z,100631.41
2022-12-07T07:10:23.724Z,100631.41
2022-12-07T07:13:25.132Z,100627.09
2022-12-07T07:16:26.628Z,100631.41
2022-12-07T07:19:28.048Z,100634.00
2022-12-07T07:22:29.445Z,100637.50
2022-12-07T07:25:32.201Z,100635.75
2022-12-07T07:28:33.601Z,100633.16
2022-12-07T07:31:36.485Z,100634.06
2022-12-07T07:34:37.940Z,100636.66
2022-12-07T07:37:39.336Z,100637.50
2022-12-07T07:40:40.803Z,100633.94
2022-12-07T07:43:42.220Z,100642.72
2022-12-07T07:46:43.611Z,100643.59
2022-12-07T07:49:48.206Z,100647.03
2022-12-07T07:52:49.949Z,100648.78
2022-12-07T07:55:54.976Z,100645.28
2022-12-07T07:58:56.460Z,100654.06
2022-12-07T08:01:57.901Z,100650.59
2022-12-07T08:04:59.378Z,100654.03
2022-12-07T08:08:00.905Z,100658.41
2022-12-07T08:11:06.553Z,100657.53
2022-12-07T08:14:08.090Z,100668.81
2022-12-07T08:17:09.514Z,100662.75
2022-12-07T08:20:10.948Z,100662.75
2022-12-07T08:23:13.161Z,100671.41
2022-12-07T08:26:16.958Z,100668.78
2022-12-07T08:29:18.872Z,100670.53
2022-12-07T08:32:20.285Z,100670.50
2022-12-07T08:35:22.083Z,100663.50
2022-12-07T08:38:26.173Z,100671.34
2022-12-07T08:41:31.741Z,100674.88
2022-12-07T08:44:33.152Z,100662.63
2022-12-07T08:47:38.195Z,100667.00
2022-12-07T08:50:44.449Z,100664.38
2022-12-07T08:53:50.740Z,100664.34
2022-12-07T08:56:58.498Z,100667.84
2022-12-07T09:00:01.231Z,100662.63
2022-12-07T09:03:03.188Z,100661.81
2022-12-07T09:06:05.235Z,100660.06
2022-12-07T09:09:07.540Z,100659.19
2022-12-07T09:12:09.038Z,100661.81
2022-12-07T09:15:10.524Z,100670.47
2022-12-07T09:18:11.915Z,100668.66
2022-12-07T09:21:13.406Z,100673.03
2022-12-07T09:24:14.919Z,100683.47
2022-12-07T09:27:18.495Z,100678.28
2022-12-07T09:30:20.018Z,100679.19
2022-12-07T09:33:21.446Z,100678.31
2022-12-07T09:36:23.047Z,100677.44
2022-12-07T09:39:24.491Z,100660.84
2022-12-07T09:42:31.264Z,100671.31
2022-12-07T09:45:36.472Z,100665.25
2022-12-07T09:48:40.056Z,100663.50
2022-12-07T09:51:41.661Z,100662.63
2022-12-07T09:54:49.360Z,100666.03
2022-12-07T09:57:52.503Z,100657.38
2022-12-07T10:01:01.166Z,100658.13
2022-12-07T10:04:24.133Z,100658.97
2022-12-07T10:07:25.655Z,100649.34
2022-12-07T10:10:35.281Z,100655.50
2022-12-07T10:13:41.123Z,100652.84
2022-12-07T10:16:42.994Z,100648.47
2022-12-07T10:19:44.657Z,100646.75
2022-12-07T10:22:55.255Z,100642.38
2022-12-07T10:25:56.852Z,100646.69
2022-12-07T10:29:34.255Z,100642.28
2022-12-07T10:32:37.238Z,100630.91
2022-12-07T10:35:43.907Z,100634.34
2022-12-07T10:38:51.654Z,100632.53
2022-12-07T10:42:01.887Z,100632.53
2022-12-07T10:45:17.541Z,100622.84
2022-12-07T10:48:30.940Z,100623.66
2022-12-07T10:51:49.022Z,100619.28
2022-12-07T10:55:17.647Z,100613.13
2022-12-07T10:58:40.715Z,100620.88
2022-12-07T11:01:48.227Z,100609.47
2022-12-07T11:05:17.847Z,100608.44
2022-12-07T11:08:39.490Z,100604.03
2022-12-07T11:11:58.112Z,100605.84
2022-12-07T11:15:09.187Z,100610.16
2022-12-07T11:18:28.669Z,100603.97
2022-12-07T11:22:00.413Z,100604.81
2022-12-07T11:25:14.271Z,100602.28
2022-12-07T11:28:37.364Z,100595.38
2022-12-07T11:31:54.016Z,100590.09
2022-12-07T11:35:10.829Z,100583.03
2022-12-07T11:38:28.215Z,100569.84
2022-12-07T11:41:36.923Z,100569.75
2022-12-07T11:44:54.353Z,100574.19
2022-12-07T11:48:03.199Z,100563.81
2022-12-07T11:51:08.797Z,100563.88
2022-12-07T11:54:19.790Z,100565.56
2022-12-07T11:57:46.051Z,100567.09
2022-12-07T12:00:49.455Z,100554.88
2022-12-07T12:03:54.756Z,100554.72
2022-12-07T12:06:56.601Z,100544.22
2022-12-07T12:10:04.112Z,100541.78
2022-12-07T12:16:51.372Z,100541.00
2022-12-07T12:20:04.839Z,100534.94
2022-12-07T12:23:18.024Z,100539.38
2022-12-07T12:26:22.292Z,100537.66
2022-12-07T12:29:44.774Z,100531.56
2022-12-07T12:32:46.358Z,100536.00
2022-12-07T12:36:16.652Z,100522.81
2022-12-07T12:39:20.093Z,100525.41
2022-12-07T12:42:21.887Z,100530.44
2022-12-07T12:45:27.623Z,100520.91
2022-12-07T12:48:36.256Z,100516.63
2022-12-07T12:51:43.002Z,100518.38
2022-12-07T12:55:14.163Z,100505.38
2022-12-07T12:58:18.675Z,100511.91
2022-12-07T13:01:43.837Z,100515.22
2022-12-07T13:04:58.131Z,100510.94
2022-12-07T13:08:22.482Z,100507.47
2022-12-07T13:11:32.993Z,100507.47
2022-12-07T13:14:42.434Z,100502.31
2022-12-07T13:17:44.466Z,100497.84
2022-12-07T13:20:52.341Z,100493.56
2022-12-07T13:24:00.891Z,100490.09
2022-12-07T13:27:03.072Z,100487.63
2022-12-07T13:30:19.936Z,100488.41
2022-12-07T13:33:21.587Z,100490.28
2022-12-07T13:36:36.500Z,100476.28
2022-12-07T13:39:47.293Z,100483.91
2022-12-07T13:42:48.784Z,100484.88
2022-12-07T13:45:57.308Z,100486.81
2022-12-07T13:48:58.842Z,100476.41
2022-12-07T13:52:21.009Z,100485.03
2022-12-07T13:55:22.501Z,100487.72
2022-12-07T13:58:24.823Z,100480.81
2022-12-07T14:01:26.829Z,100477.34
2022-12-07T14:04:28.223Z,100465.94
2022-12-07T14:07:29.866Z,100465.81
2022-12-07T14:10:31.341Z,100472.97
2022-12-07T14:13:44.977Z,100470.28
2022-12-07T14:16:58.267Z,100472.81
2022-12-07T14:20:01.196Z,100465.16
2022-12-07T14:23:09.891Z,100467.75
2022-12-07T14:26:14.531Z,100464.44
2022-12-07T14:29:29.069Z,100466.09
2022-12-07T14:32:31.897Z,100466.91
2022-12-07T14:35:33.457Z,100460.75
2022-12-07T14:38:34.909Z,100469.50
2022-12-07T14:41:51.399Z,100465.91
2022-12-07T14:44:52.936Z,100455.38
2022-12-07T14:54:37.808Z,100462.31
2022-12-07T14:57:39.308Z,100454.66
2022-12-07T15:00:40.854Z,100455.56
2022-12-07T15:03:42.410Z,100462.59
2022-12-07T15:06:56.439Z,100466.00
2022-12-07T15:09:57.859Z,100453.63
2022-12-07T15:13:19.021Z,100455.69
2022-12-07T15:16:21.605Z,100463.63
2022-12-07T15:19:28.499Z,100461.91
2022-12-07T15:22:38.000Z,100466.28
2022-12-07T15:25:48.325Z,100462.84
2022-12-07T15:28:49.722Z,100465.50
2022-12-07T15:31:57.081Z,100454.22
2022-12-07T15:34:59.359Z,100459.31
2022-12-07T15:38:00.757Z,100461.22
2022-12-07T15:41:02.175Z,100452.63
2022-12-07T15:44:27.732Z,100451.75
2022-12-07T15:48:02.333Z,100449.84
2022-12-07T15:51:08.529Z,100443.09
2022-12-07T15:54:25.250Z,100444.72
2022-12-07T15:57:27.671Z,100437.00
2022-12-07T16:00:30.456Z,100439.56
2022-12-07T16:03:31.900Z,100430.91
2022-12-07T16:06:33.336Z,100432.69
2022-12-07T16:09:34.797Z,100430.03
2022-12-07T16:12:36.242Z,100426.63
2022-12-07T16:15:42.081Z,100429.97
2022-12-07T16:18:45.028Z,100426.53
2022-12-07T16:21:46.864Z,100424.78
2022-12-07T16:24:48.316Z,100429.28
2022-12-07T16:27:49.712Z,100437.22
2022-12-07T16:31:01.562Z,100418.84
2022-12-07T16:34:03.109Z,100421.38
2022-12-07T16:37:05.828Z,100426.75
2022-12-07T16:40:08.191Z,100417.97
2022-12-07T16:43:12.251Z,100422.47
2022-12-07T16:46:14.175Z,100414.63
2022-12-07T16:49:16.671Z,100416.28
2022-12-07T16:52:20.639Z,100425.00
2022-12-07T16:55:22.840Z,100420.72
2022-12-07T16:58:24.347Z,100412.88
2022-12-07T17:01:28.889Z,100404.06
2022-12-07T17:04:30.710Z,100398.94
2022-12-07T17:07:32.144Z,100394.66
2022-12-07T17:10:36.248Z,100396.53
2022-12-07T17:13:56.561Z,100400.84
2022-12-07T17:16:58.101Z,100401.81
2022-12-07T17:19:59.817Z,100400.91
2022-12-07T17:23:01.262Z,100388.59
2022-12-07T17:26:10.894Z,100399.91
2022-12-07T17:29:14.942Z,100397.28
2022-12-07T17:32:16.496Z,100412.13
2022-12-07T17:35:18.033Z,100404.22
2022-12-07T17:38:19.707Z,100399.88
2022-12-07T17:41:42.858Z,100406.03
2022-12-07T17:44:44.508Z,100402.56
2022-12-07T17:47:45.976Z,100396.53
2022-12-07T17:51:06.111Z,100395.66
2022-12-07T17:54:07.551Z,100390.44
2022-12-07T17:57:09.512Z,100385.31
2022-12-07T18:00:12.043Z,100387.00
2022-12-07T18:03:13.484Z,100385.22
2022-12-07T18:06:15.169Z,100392.19
2022-12-07T18:09:16.676Z,100386.97
2022-12-07T18:12:18.075Z,100387.78
2022-12-07T18:15:19.507Z,100394.81
2022-12-07T18:18:20.985Z,100390.28
2022-12-07T18:21:27.404Z,100392.19
2022-12-07T18:24:36.226Z,100394.78
2022-12-07T18:27:38.400Z,100388.63
2022-12-07T18:31:13.749Z,100380.84
2022-12-07T18:34:12.042Z,100380.84
2022-12-07T18:37:13.551Z,100381.72
2022-12-07T18:40:15.246Z,100377.38
2022-12-07T18:43:18.656Z,100378.25
2022-12-07T18:46:21.515Z,100390.59
2022-12-07T18:49:23.205Z,100390.59
2022-12-07T18:52:24.658Z,100388.78
2022-12-07T18:55:27.356Z,100385.22
2022-12-07T18:58:29.208Z,100387.09
2022-12-07T19:01:31.492Z,100380.13
2022-12-07T19:04:33.041Z,100383.69
2022-12-07T19:07:34.467Z,100370.63
2022-12-07T19:10:36.264Z,100373.16
2022-12-07T19:13:37.683Z,100375.00
2022-12-07T19:16:41.459Z,100369.75
2022-12-07T19:19:45.070Z,100372.50
2022-12-07T19:22:46.455Z,100374.31
2022-12-07T19:25:47.869Z,100376.84
2022-12-07T19:28:50.150Z,100368.22
2022-12-07T19:31:51.620Z,100362.97
2022-12-07T19:34:54.437Z,100356.03
2022-12-07T19:37:55.836Z,100358.63
2022-12-07T19:41:07.385Z,100356.97
2022-12-07T19:44:17.661Z,100363.06
2022-12-07T19:47:19.148Z,100362.25
2022-12-07T19:50:20.587Z,100363.00
2022-12-07T19:53:22.039Z,100356.13
2022-12-07T19:56:23.424Z,100356.16
2022-12-07T19:59:27.915Z,100357.03
2022-12-07T20:02:29.360Z,100349.25
2022-12-07T20:05:30.826Z,100349.25
2022-12-07T20:08:32.224Z,100344.91
2022-12-07T20:11:52.396Z,100345.84
2022-12-07T20:14:53.775Z,100346.78
2022-12-07T20:17:55.168Z,100338.06
2022-12-07T20:20:58.888Z,100340.63
2022-12-07T20:24:01.310Z,100347.59
2022-12-07T20:27:04.230Z,100340.59
2022-12-07T20:30:06.472Z,100335.44
2022-12-07T20:33:07.885Z,100343.31
2022-12-07T20:36:10.143Z,100348.47
2022-12-07T20:39:11.992Z,100336.38
2022-12-07T20:42:31.967Z,100349.44
2022-12-07T20:45:33.401Z,100345.97
2022-12-07T20:48:34.776Z,100350.31
2022-12-07T20:51:36.248Z,100344.34
2022-12-07T20:54:37.658Z,100339.94
2022-12-07T20:57:39.505Z,100340.84
2022-12-07T21:00:40.895Z,100333.94
2022-12-07T21:03:43.524Z,100337.38
2022-12-07T21:06:45.196Z,100326.81
2022-12-07T21:09:46.609Z,100319.97
2022-12-07T21:12:52.604Z,100320.03
2022-12-07T21:15:59.245Z,100324.44
2022-12-07T21:19:02.720Z,100314.06
2022-12-07T21:22:05.066Z,100305.38
2022-12-07T21:25:06.887Z,100306.25
2022-12-07T21:28:08.629Z,100304.47
2022-12-07T21:31:14.017Z,100310.59
2022-12-07T21:34:15.849Z,100307.03
2022-12-07T21:37:17.365Z,100304.47
2022-12-07T21:40:18.905Z,100309.72
2022-12-07T21:43:20.291Z,100308.78
2022-12-07T21:46:26.882Z,100292.31
2022-12-07T21:49:31.252Z,100288.91
2022-12-07T21:52:32.632Z,100294.22
2022-12-07T21:55:34.050Z,100285.59
2022-12-07T21:58:35.442Z,100296.84
2022-12-07T22:01:40.361Z,100294.16
2022-12-07T22:04:41.792Z,100292.44
2022-12-07T22:07:43.261Z,100292.44
2022-12-07T22:10:44.677Z,100280.31
2022-12-07T22:14:09.930Z,100280.38
2022-12-07T22:17:12.215Z,100278.69
2022-12-07T22:20:13.636Z,100286.47
2022-12-07T22:23:15.016Z,100275.16
2022-12-07T22:26:22.756Z,100277.72
2022-12-07T22:29:25.931Z,100277.81
2022-12-07T22:35:52.815Z,100264.00
2022-12-07T22:38:54.200Z,100267.59
2022-12-07T22:41:55.624Z,100271.06
2022-12-07T22:44:57.008Z,100260.69
2022-12-07T22:47:58.542Z,100260.78
2022-12-07T22:51:00.351Z,100266.81
2022-12-07T22:54:03.732Z,100261.56
2022-12-07T22:57:05.315Z,100258.94
2022-12-07T23:00:09.093Z,100259.81
2022-12-07T23:03:10.710Z,100261.56
2022-12-07T23:06:21.491Z,100255.53
2022-12-07T23:09:22.868Z,100251.19
2022-12-07T23:12:43.057Z,100252.03
2022-12-07T23:15:44.550Z,100250.31
2022-12-07T23:18:46.089Z,100248.63
2022-12-07T23:21:47.686Z,100246.94
2022-12-07T23:24:49.280Z,100242.53
2022-12-07T23:27:50.717Z,100239.13
2022-12-07T23:30:52.119Z,100244.31
2022-12-07T23:33:53.531Z,100248.56
2022-12-07T23:36:54.959Z,100242.59
2022-12-07T23:39:56.343Z,100238.25
2022-12-07T23:42:57.976Z,100240.88
2022-12-07T23:45:59.916Z,100243.50
2022-12-07T23:49:03.213Z,100241.75
2022-12-07T23:52:04.737Z,100240.03
2022-12-07T23:55:06.819Z,100235.69
2022-12-07T23:58:08.265Z,100235.72
